sensor_id;sensor_type;location;lat;lon;timestamp;P1;durP1;ratioP1;P2;durP2;ratioP2
21675;SDS011;10999;51.332;9.458;2022-10-16T00:01:12;5.22;;;2.30;;
21675;SDS011;10999;51.332;9.458;2022-10-16T00:03:41;4.95;;;1.83;;
21675;SDS011;10999;51.332;9.458;2022-10-16T00:06:09;4.38;;;1.92;;
21675;SDS011;10999;51.332;9.458;2022-10-16T00:08:37;5.18;;;1.80;;
21675;SDS011;10999;51.332;9.458;2022-10-16T00:11:06;5.28;;;2.20;;
21675;SDS011;10999;51.332;9.458;2022-10-16T00:13:35;4.28;;;2.00;;
21675;SDS011;10999;51.332;9.458;2022-10-16T00:16:03;5.43;;;1.90;;
21675;SDS011;10999;51.332;9.458;2022-10-16T00:18:31;4.25;;;1.88;;
21675;SDS011;10999;51.332;9.458;2022-10-16T00:21:02;5.43;;;1.88;;
21675;SDS011;10999;51.332;9.458;2022-10-16T00:23:30;5.50;;;2.38;;
21675;SDS011;10999;51.332;9.458;2022-10-16T00:25:59;5.50;;;2.28;;
21675;SDS011;10999;51.332;9.458;2022-10-16T00:28:27;5.57;;;2.15;;
21675;SDS011;10999;51.332;9.458;2022-10-16T00:30:54;4.68;;;2.17;;
21675;SDS011;10999;51.332;9.458;2022-10-16T00:33:21;7.10;;;2.53;;
21675;SDS011;10999;51.332;9.458;2022-10-16T00:35:57;5.20;;;2.30;;
21675;SDS011;10999;51.332;9.458;2022-10-16T00:38:28;4.45;;;2.10;;
21675;SDS011;10999;51.332;9.458;2022-10-16T00:40:55;6.65;;;2.90;;
21675;SDS011;10999;51.332;9.458;2022-10-16T00:43:41;4.45;;;2.25;;
21675;SDS011;10999;51.332;9.458;2022-10-16T00:46:13;5.53;;;2.30;;
21675;SDS011;10999;51.332;9.458;2022-10-16T00:48:55;4.43;;;2.25;;
21675;SDS011;10999;51.332;9.458;2022-10-16T00:51:45;3.17;;;1.67;;
21675;SDS011;10999;51.332;9.458;2022-10-16T00:54:17;5.05;;;2.38;;
21675;SDS011;10999;51.332;9.458;2022-10-16T00:56:47;4.60;;;2.05;;
21675;SDS011;10999;51.332;9.458;2022-10-16T00:59:16;6.80;;;2.72;;
21675;SDS011;10999;51.332;9.458;2022-10-16T01:01:51;3.38;;;1.63;;
21675;SDS011;10999;51.332;9.458;2022-10-16T01:04:19;4.43;;;2.05;;
21675;SDS011;10999;51.332;9.458;2022-10-16T01:06:51;4.00;;;1.92;;
21675;SDS011;10999;51.332;9.458;2022-10-16T01:09:34;4.38;;;1.75;;
21675;SDS011;10999;51.332;9.458;2022-10-16T01:15:17;5.03;;;1.95;;
21675;SDS011;10999;51.332;9.458;2022-10-16T01:18:18;4.53;;;1.98;;
21675;SDS011;10999;51.332;9.458;2022-10-16T01:21:10;4.95;;;2.00;;
21675;SDS011;10999;51.332;9.458;2022-10-16T01:28:57;5.47;;;2.17;;
21675;SDS011;10999;51.332;9.458;2022-10-16T01:31:44;6.05;;;2.17;;
21675;SDS011;10999;51.332;9.458;2022-10-16T01:34:19;4.95;;;2.40;;
21675;SDS011;10999;51.332;9.458;2022-10-16T01:36:52;5.25;;;2.50;;
21675;SDS011;10999;51.332;9.458;2022-10-16T01:39:22;4.78;;;2.25;;
21675;SDS011;10999;51.332;9.458;2022-10-16T01:41:56;4.05;;;2.03;;
21675;SDS011;10999;51.332;9.458;2022-10-16T01:44:31;5.90;;;2.35;;
21675;SDS011;10999;51.332;9.458;2022-10-16T01:47:00;5.18;;;2.60;;
21675;SDS011;10999;51.332;9.458;2022-10-16T01:49:30;6.45;;;2.72;;
21675;SDS011;10999;51.332;9.458;2022-10-16T01:51:59;5.35;;;2.58;;
21675;SDS011;10999;51.332;9.458;2022-10-16T01:54:30;5.88;;;2.92;;
21675;SDS011;10999;51.332;9.458;2022-10-16T01:56:59;4.72;;;2.40;;
21675;SDS011;10999;51.332;9.458;2022-10-16T01:59:29;5.68;;;2.20;;
21675;SDS011;10999;51.332;9.458;2022-10-16T02:02:00;5.70;;;2.60;;
21675;SDS011;10999;51.332;9.458;2022-10-16T02:04:35;6.68;;;2.45;;
21675;SDS011;10999;51.332;9.458;2022-10-16T02:07:15;4.75;;;2.28;;
21675;SDS011;10999;51.332;9.458;2022-10-16T02:09:42;5.25;;;2.42;;
21675;SDS011;10999;51.332;9.458;2022-10-16T02:12:10;5.28;;;2.20;;
21675;SDS011;10999;51.332;9.458;2022-10-16T02:14:44;6.78;;;2.22;;
21675;SDS011;10999;51.332;9.458;2022-10-16T02:17:15;6.20;;;2.70;;
21675;SDS011;10999;51.332;9.458;2022-10-16T02:19:43;6.55;;;2.38;;
21675;SDS011;10999;51.332;9.458;2022-10-16T02:22:16;3.67;;;1.80;;
21675;SDS011;10999;51.332;9.458;2022-10-16T02:24:51;4.72;;;2.10;;
21675;SDS011;10999;51.332;9.458;2022-10-16T02:27:25;4.43;;;2.00;;
21675;SDS011;10999;51.332;9.458;2022-10-16T02:29:58;6.05;;;2.70;;
21675;SDS011;10999;51.332;9.458;2022-10-16T02:32:36;8.40;;;2.97;;
21675;SDS011;10999;51.332;9.458;2022-10-16T02:35:05;5.57;;;2.85;;
21675;SDS011;10999;51.332;9.458;2022-10-16T02:37:33;11.07;;;2.95;;
21675;SDS011;10999;51.332;9.458;2022-10-16T02:40:01;5.07;;;2.33;;
21675;SDS011;10999;51.332;9.458;2022-10-16T02:42:35;5.57;;;2.63;;
21675;SDS011;10999;51.332;9.458;2022-10-16T02:45:03;6.78;;;3.25;;
21675;SDS011;10999;51.332;9.458;2022-10-16T02:47:31;6.82;;;3.03;;
21675;SDS011;10999;51.332;9.458;2022-10-16T02:49:58;6.20;;;2.80;;
21675;SDS011;10999;51.332;9.458;2022-10-16T02:52:24;8.32;;;3.35;;
21675;SDS011;10999;51.332;9.458;2022-10-16T02:54:52;7.40;;;2.75;;
21675;SDS011;10999;51.332;9.458;2022-10-16T02:57:19;7.35;;;3.05;;
21675;SDS011;10999;51.332;9.458;2022-10-16T02:59:45;6.72;;;3.42;;
21675;SDS011;10999;51.332;9.458;2022-10-16T03:02:12;6.40;;;2.67;;
21675;SDS011;10999;51.332;9.458;2022-10-16T03:04:39;8.05;;;3.50;;
21675;SDS011;10999;51.332;9.458;2022-10-16T03:07:05;9.70;;;3.65;;
21675;SDS011;10999;51.332;9.458;2022-10-16T03:09:33;8.10;;;3.35;;
21675;SDS011;10999;51.332;9.458;2022-10-16T03:12:00;7.50;;;3.20;;
21675;SDS011;10999;51.332;9.458;2022-10-16T03:14:27;7.07;;;3.45;;
21675;SDS011;10999;51.332;9.458;2022-10-16T03:16:53;7.38;;;3.42;;
21675;SDS011;10999;51.332;9.458;2022-10-16T03:19:20;10.35;;;4.05;;
21675;SDS011;10999;51.332;9.458;2022-10-16T03:21:47;7.45;;;3.72;;
21675;SDS011;10999;51.332;9.458;2022-10-16T03:24:13;10.95;;;4.95;;
21675;SDS011;10999;51.332;9.458;2022-10-16T03:26:40;9.13;;;4.45;;
21675;SDS011;10999;51.332;9.458;2022-10-16T03:29:07;7.75;;;4.10;;
21675;SDS011;10999;51.332;9.458;2022-10-16T03:31:34;7.75;;;4.18;;
21675;SDS011;10999;51.332;9.458;2022-10-16T03:34:00;7.40;;;3.70;;
21675;SDS011;10999;51.332;9.458;2022-10-16T03:36:27;10.00;;;4.30;;
21675;SDS011;10999;51.332;9.458;2022-10-16T03:38:54;7.53;;;4.07;;
21675;SDS011;10999;51.332;9.458;2022-10-16T03:41:20;7.35;;;3.47;;
21675;SDS011;10999;51.332;9.458;2022-10-16T03:43:47;7.63;;;3.17;;
21675;SDS011;10999;51.332;9.458;2022-10-16T03:46:14;8.98;;;4.15;;
21675;SDS011;10999;51.332;9.458;2022-10-16T03:48:40;13.13;;;5.20;;
21675;SDS011;10999;51.332;9.458;2022-10-16T03:51:07;10.00;;;4.90;;
21675;SDS011;10999;51.332;9.458;2022-10-16T03:53:34;9.30;;;5.05;;
21675;SDS011;10999;51.332;9.458;2022-10-16T03:56:01;9.73;;;4.85;;
21675;SDS011;10999;51.332;9.458;2022-10-16T03:58:27;8.20;;;4.50;;
21675;SDS011;10999;51.332;9.458;2022-10-16T04:00:54;9.30;;;5.35;;
21675;SDS011;10999;51.332;9.458;2022-10-16T04:03:21;10.00;;;4.78;;
21675;SDS011;10999;51.332;9.458;2022-10-16T04:05:49;8.73;;;4.55;;
21675;SDS011;10999;51.332;9.458;2022-10-16T04:08:16;9.07;;;4.90;;
21675;SDS011;10999;51.332;9.458;2022-10-16T04:10:43;7.65;;;4.20;;
21675;SDS011;10999;51.332;9.458;2022-10-16T04:13:10;7.97;;;4.50;;
21675;SDS011;10999;51.332;9.458;2022-10-16T04:15:37;11.18;;;4.72;;
21675;SDS011;10999;51.332;9.458;2022-10-16T04:18:04;8.32;;;4.10;;
21675;SDS011;10999;51.332;9.458;2022-10-16T04:20:32;12.55;;;4.45;;
21675;SDS011;10999;51.332;9.458;2022-10-16T04:22:59;10.13;;;4.90;;
21675;SDS011;10999;51.332;9.458;2022-10-16T04:25:26;9.57;;;4.43;;
21675;SDS011;10999;51.332;9.458;2022-10-16T04:27:53;11.07;;;4.28;;
21675;SDS011;10999;51.332;9.458;2022-10-16T04:30:21;8.35;;;4.43;;
21675;SDS011;10999;51.332;9.458;2022-10-16T04:32:49;8.75;;;4.65;;
21675;SDS011;10999;51.332;9.458;2022-10-16T04:35:17;9.38;;;4.65;;
21675;SDS011;10999;51.332;9.458;2022-10-16T04:37:45;9.40;;;4.75;;
21675;SDS011;10999;51.332;9.458;2022-10-16T04:40:12;9.80;;;4.88;;
21675;SDS011;10999;51.332;9.458;2022-10-16T04:42:39;10.05;;;5.18;;
21675;SDS011;10999;51.332;9.458;2022-10-16T04:45:07;10.32;;;5.10;;
21675;SDS011;10999;51.332;9.458;2022-10-16T04:47:39;9.27;;;4.68;;
21675;SDS011;10999;51.332;9.458;2022-10-16T04:50:06;11.65;;;5.35;;
21675;SDS011;10999;51.332;9.458;2022-10-16T04:52:33;10.48;;;5.65;;
21675;SDS011;10999;51.332;9.458;2022-10-16T04:55:05;13.93;;;5.43;;
21675;SDS011;10999;51.332;9.458;2022-10-16T04:57:32;10.77;;;5.13;;
21675;SDS011;10999;51.332;9.458;2022-10-16T04:59:59;11.68;;;5.00;;
21675;SDS011;10999;51.332;9.458;2022-10-16T05:02:26;9.65;;;4.78;;
21675;SDS011;10999;51.332;9.458;2022-10-16T05:04:53;10.20;;;4.55;;
21675;SDS011;10999;51.332;9.458;2022-10-16T05:07:19;8.80;;;4.13;;
21675;SDS011;10999;51.332;9.458;2022-10-16T05:09:46;7.65;;;3.38;;
21675;SDS011;10999;51.332;9.458;2022-10-16T05:12:13;7.55;;;3.35;;
21675;SDS011;10999;51.332;9.458;2022-10-16T05:14:39;6.57;;;3.15;;
21675;SDS011;10999;51.332;9.458;2022-10-16T05:17:06;8.57;;;3.58;;
21675;SDS011;10999;51.332;9.458;2022-10-16T05:19:33;7.25;;;4.15;;
21675;SDS011;10999;51.332;9.458;2022-10-16T05:22:00;7.50;;;3.40;;
21675;SDS011;10999;51.332;9.458;2022-10-16T05:24:27;6.70;;;3.33;;
21675;SDS011;10999;51.332;9.458;2022-10-16T05:26:53;8.15;;;3.95;;
21675;SDS011;10999;51.332;9.458;2022-10-16T05:29:20;7.30;;;2.83;;
21675;SDS011;10999;51.332;9.458;2022-10-16T05:31:49;7.63;;;3.40;;
21675;SDS011;10999;51.332;9.458;2022-10-16T05:34:23;8.15;;;2.83;;
21675;SDS011;10999;51.332;9.458;2022-10-16T05:36:50;8.55;;;3.85;;
21675;SDS011;10999;51.332;9.458;2022-10-16T05:39:17;7.90;;;3.67;;
21675;SDS011;10999;51.332;9.458;2022-10-16T05:41:44;9.77;;;3.95;;
21675;SDS011;10999;51.332;9.458;2022-10-16T05:44:10;8.50;;;3.72;;
21675;SDS011;10999;51.332;9.458;2022-10-16T05:46:37;10.07;;;3.85;;
21675;SDS011;10999;51.332;9.458;2022-10-16T05:49:04;8.30;;;3.22;;
21675;SDS011;10999;51.332;9.458;2022-10-16T05:51:31;7.85;;;3.63;;
21675;SDS011;10999;51.332;9.458;2022-10-16T05:53:57;8.45;;;3.58;;
21675;SDS011;10999;51.332;9.458;2022-10-16T05:56:24;7.18;;;3.35;;
21675;SDS011;10999;51.332;9.458;2022-10-16T05:58:51;7.20;;;3.40;;
21675;SDS011;10999;51.332;9.458;2022-10-16T06:01:18;7.30;;;3.65;;
21675;SDS011;10999;51.332;9.458;2022-10-16T06:03:46;7.05;;;3.45;;
21675;SDS011;10999;51.332;9.458;2022-10-16T06:06:14;7.00;;;3.50;;
21675;SDS011;10999;51.332;9.458;2022-10-16T06:08:43;6.90;;;3.28;;
21675;SDS011;10999;51.332;9.458;2022-10-16T06:11:13;8.23;;;3.42;;
21675;SDS011;10999;51.332;9.458;2022-10-16T06:13:41;6.53;;;3.38;;
21675;SDS011;10999;51.332;9.458;2022-10-16T06:16:09;6.65;;;3.13;;
21675;SDS011;10999;51.332;9.458;2022-10-16T06:18:36;6.68;;;3.20;;
21675;SDS011;10999;51.332;9.458;2022-10-16T06:21:11;13.18;;;3.63;;
21675;SDS011;10999;51.332;9.458;2022-10-16T06:23:40;6.15;;;2.80;;
21675;SDS011;10999;51.332;9.458;2022-10-16T06:26:07;6.32;;;2.78;;
21675;SDS011;10999;51.332;9.458;2022-10-16T06:28:35;7.65;;;2.75;;
21675;SDS011;10999;51.332;9.458;2022-10-16T06:31:04;5.82;;;2.50;;
21675;SDS011;10999;51.332;9.458;2022-10-16T06:33:33;4.25;;;2.03;;
21675;SDS011;10999;51.332;9.458;2022-10-16T06:36:04;6.00;;;2.80;;
21675;SDS011;10999;51.332;9.458;2022-10-16T06:38:32;6.30;;;3.00;;
21675;SDS011;10999;51.332;9.458;2022-10-16T06:40:58;7.18;;;2.70;;
21675;SDS011;10999;51.332;9.458;2022-10-16T06:43:26;7.05;;;2.60;;
21675;SDS011;10999;51.332;9.458;2022-10-16T06:45:56;7.13;;;2.67;;
21675;SDS011;10999;51.332;9.458;2022-10-16T06:48:24;6.13;;;2.60;;
21675;SDS011;10999;51.332;9.458;2022-10-16T06:50:55;8.68;;;2.85;;
21675;SDS011;10999;51.332;9.458;2022-10-16T06:53:22;6.22;;;2.22;;
21675;SDS011;10999;51.332;9.458;2022-10-16T06:55:49;5.53;;;2.42;;
21675;SDS011;10999;51.332;9.458;2022-10-16T06:58:16;5.03;;;2.33;;
21675;SDS011;10999;51.332;9.458;2022-10-16T07:00:43;4.57;;;2.00;;
21675;SDS011;10999;51.332;9.458;2022-10-16T07:03:09;5.10;;;2.00;;
21675;SDS011;10999;51.332;9.458;2022-10-16T07:05:40;5.90;;;2.25;;
21675;SDS011;10999;51.332;9.458;2022-10-16T07:08:07;4.90;;;2.22;;
21675;SDS011;10999;51.332;9.458;2022-10-16T07:10:35;7.10;;;2.03;;
21675;SDS011;10999;51.332;9.458;2022-10-16T07:13:02;3.75;;;1.70;;
21675;SDS011;10999;51.332;9.458;2022-10-16T07:15:28;4.15;;;1.90;;
21675;SDS011;10999;51.332;9.458;2022-10-16T07:17:55;4.32;;;1.48;;
21675;SDS011;10999;51.332;9.458;2022-10-16T07:20:22;3.80;;;1.38;;
21675;SDS011;10999;51.332;9.458;2022-10-16T07:22:49;3.45;;;1.40;;
21675;SDS011;10999;51.332;9.458;2022-10-16T07:25:15;2.75;;;1.02;;
21675;SDS011;10999;51.332;9.458;2022-10-16T07:27:42;3.97;;;0.98;;
21675;SDS011;10999;51.332;9.458;2022-10-16T07:30:09;1.98;;;0.70;;
21675;SDS011;10999;51.332;9.458;2022-10-16T07:32:36;3.80;;;1.35;;
21675;SDS011;10999;51.332;9.458;2022-10-16T07:35:03;2.42;;;1.08;;
21675;SDS011;10999;51.332;9.458;2022-10-16T07:37:30;3.42;;;1.00;;
21675;SDS011;10999;51.332;9.458;2022-10-16T07:39:57;2.20;;;0.73;;
21675;SDS011;10999;51.332;9.458;2022-10-16T07:42:23;2.72;;;0.85;;
21675;SDS011;10999;51.332;9.458;2022-10-16T07:44:50;2.35;;;0.90;;
21675;SDS011;10999;51.332;9.458;2022-10-16T07:47:17;2.50;;;0.90;;
21675;SDS011;10999;51.332;9.458;2022-10-16T07:49:43;3.10;;;0.93;;
21675;SDS011;10999;51.332;9.458;2022-10-16T07:52:10;1.98;;;0.80;;
21675;SDS011;10999;51.332;9.458;2022-10-16T07:54:37;1.00;;;0.60;;
21675;SDS011;10999;51.332;9.458;2022-10-16T07:57:04;2.40;;;1.00;;
21675;SDS011;10999;51.332;9.458;2022-10-16T07:59:30;3.88;;;1.10;;
21675;SDS011;10999;51.332;9.458;2022-10-16T08:01:57;2.30;;;0.88;;
21675;SDS011;10999;51.332;9.458;2022-10-16T08:04:24;2.78;;;0.90;;
21675;SDS011;10999;51.332;9.458;2022-10-16T08:06:50;3.22;;;1.00;;
21675;SDS011;10999;51.332;9.458;2022-10-16T08:09:17;2.38;;;1.17;;
21675;SDS011;10999;51.332;9.458;2022-10-16T08:11:44;3.92;;;1.02;;
21675;SDS011;10999;51.332;9.458;2022-10-16T08:14:10;2.75;;;1.08;;
21675;SDS011;10999;51.332;9.458;2022-10-16T08:16:37;4.35;;;1.45;;
21675;SDS011;10999;51.332;9.458;2022-10-16T08:19:04;2.58;;;0.95;;
21675;SDS011;10999;51.332;9.458;2022-10-16T08:21:30;2.75;;;0.90;;
21675;SDS011;10999;51.332;9.458;2022-10-16T08:23:57;2.95;;;1.23;;
21675;SDS011;10999;51.332;9.458;2022-10-16T08:26:25;2.53;;;0.80;;
21675;SDS011;10999;51.332;9.458;2022-10-16T08:28:53;2.22;;;1.00;;
21675;SDS011;10999;51.332;9.458;2022-10-16T08:31:21;2.45;;;0.90;;
21675;SDS011;10999;51.332;9.458;2022-10-16T08:33:48;2.53;;;0.90;;
21675;SDS011;10999;51.332;9.458;2022-10-16T08:36:15;3.35;;;1.20;;
21675;SDS011;10999;51.332;9.458;2022-10-16T08:38:42;2.38;;;0.70;;
21675;SDS011;10999;51.332;9.458;2022-10-16T08:49:15;2.17;;;0.90;;
21675;SDS011;10999;51.332;9.458;2022-10-16T08:51:44;2.70;;;1.00;;
21675;SDS011;10999;51.332;9.458;2022-10-16T08:57:01;3.08;;;0.98;;
21675;SDS011;10999;51.332;9.458;2022-10-16T08:59:36;2.25;;;1.10;;
21675;SDS011;10999;51.332;9.458;2022-10-16T09:02:03;3.08;;;1.10;;
21675;SDS011;10999;51.332;9.458;2022-10-16T09:16:14;2.63;;;0.80;;
21675;SDS011;10999;51.332;9.458;2022-10-16T09:18:52;3.90;;;0.95;;
21675;SDS011;10999;51.332;9.458;2022-10-16T09:21:30;2.00;;;0.70;;
21675;SDS011;10999;51.332;9.458;2022-10-16T09:24:08;2.83;;;0.88;;
21675;SDS011;10999;51.332;9.458;2022-10-16T09:26:39;2.30;;;0.68;;
21675;SDS011;10999;51.332;9.458;2022-10-16T09:29:08;1.30;;;0.60;;
21675;SDS011;10999;51.332;9.458;2022-10-16T09:31:42;1.00;;;0.50;;
21675;SDS011;10999;51.332;9.458;2022-10-16T09:36:59;1.40;;;0.50;;
21675;SDS011;10999;51.332;9.458;2022-10-16T09:39:27;1.70;;;0.60;;
21675;SDS011;10999;51.332;9.458;2022-10-16T09:41:53;1.23;;;0.40;;
21675;SDS011;10999;51.332;9.458;2022-10-16T09:44:26;1.13;;;0.60;;
21675;SDS011;10999;51.332;9.458;2022-10-16T09:47:02;2.40;;;0.82;;
21675;SDS011;10999;51.332;9.458;2022-10-16T09:49:30;2.38;;;0.70;;
21675;SDS011;10999;51.332;9.458;2022-10-16T09:52:04;1.50;;;0.70;;
21675;SDS011;10999;51.332;9.458;2022-10-16T09:54:36;1.88;;;0.60;;
21675;SDS011;10999;51.332;9.458;2022-10-16T09:57:04;2.38;;;0.80;;
21675;SDS011;10999;51.332;9.458;2022-10-16T09:59:45;2.67;;;0.60;;
21675;SDS011;10999;51.332;9.458;2022-10-16T10:02:20;3.65;;;0.75;;
21675;SDS011;10999;51.332;9.458;2022-10-16T10:05:20;2.47;;;0.60;;
21675;SDS011;10999;51.332;9.458;2022-10-16T10:08:12;2.03;;;0.60;;
21675;SDS011;10999;51.332;9.458;2022-10-16T10:10:42;0.98;;;0.50;;
21675;SDS011;10999;51.332;9.458;2022-10-16T10:13:22;0.90;;;0.40;;
21675;SDS011;10999;51.332;9.458;2022-10-16T10:15:50;1.73;;;0.50;;
21675;SDS011;10999;51.332;9.458;2022-10-16T10:18:19;2.55;;;0.63;;
21675;SDS011;10999;51.332;9.458;2022-10-16T10:21:02;0.70;;;0.47;;
21675;SDS011;10999;51.332;9.458;2022-10-16T10:23:31;1.98;;;0.52;;
21675;SDS011;10999;51.332;9.458;2022-10-16T10:28:50;2.30;;;0.50;;
21675;SDS011;10999;51.332;9.458;2022-10-16T10:34:39;0.80;;;0.40;;
21675;SDS011;10999;51.332;9.458;2022-10-16T10:40:12;1.17;;;0.50;;
21675;SDS011;10999;51.332;9.458;2022-10-16T10:42:53;1.83;;;0.50;;
21675;SDS011;10999;51.332;9.458;2022-10-16T10:45:27;2.60;;;0.65;;
21675;SDS011;10999;51.332;9.458;2022-10-16T10:51:40;0.52;;;0.40;;
21675;SDS011;10999;51.332;9.458;2022-10-16T10:53:55;0.43;;;0.38;;
21675;SDS011;10999;51.332;9.458;2022-10-16T11:05:13;1.98;;;0.30;;
21675;SDS011;10999;51.332;9.458;2022-10-16T11:10:16;1.90;;;1.17;;
21675;SDS011;10999;51.332;9.458;2022-10-16T11:12:49;0.77;;;0.25;;
21675;SDS011;10999;51.332;9.458;2022-10-16T11:15:23;2.15;;;0.40;;
21675;SDS011;10999;51.332;9.458;2022-10-16T11:17:52;2.53;;;0.40;;
21675;SDS011;10999;51.332;9.458;2022-10-16T11:20:30;0.75;;;0.25;;
21675;SDS011;10999;51.332;9.458;2022-10-16T11:23:09;2.10;;;0.40;;
21675;SDS011;10999;51.332;9.458;2022-10-16T11:25:56;0.95;;;0.32;;
21675;SDS011;10999;51.332;9.458;2022-10-16T11:28:32;1.23;;;0.40;;
21675;SDS011;10999;51.332;9.458;2022-10-16T11:36:26;1.35;;;0.30;;
21675;SDS011;10999;51.332;9.458;2022-10-16T11:41:50;0.22;;;0.22;;
21675;SDS011;10999;51.332;9.458;2022-10-16T11:44:41;0.50;;;0.20;;
21675;SDS011;10999;51.332;9.458;2022-10-16T11:50:26;2.10;;;0.40;;
21675;SDS011;10999;51.332;9.458;2022-10-16T11:55:48;1.45;;;0.30;;
21675;SDS011;10999;51.332;9.458;2022-10-16T11:58:32;1.05;;;0.30;;
21675;SDS011;10999;51.332;9.458;2022-10-16T12:03:38;3.15;;;0.40;;
21675;SDS011;10999;51.332;9.458;2022-10-16T12:06:22;3.00;;;0.43;;
21675;SDS011;10999;51.332;9.458;2022-10-16T12:08:58;2.35;;;0.50;;
21675;SDS011;10999;51.332;9.458;2022-10-16T12:11:37;1.58;;;0.60;;
21675;SDS011;10999;51.332;9.458;2022-10-16T12:14:18;1.80;;;0.50;;
21675;SDS011;10999;51.332;9.458;2022-10-16T12:16:50;1.95;;;0.50;;
21675;SDS011;10999;51.332;9.458;2022-10-16T12:19:26;1.60;;;0.20;;
21675;SDS011;10999;51.332;9.458;2022-10-16T12:21:59;1.27;;;0.45;;
21675;SDS011;10999;51.332;9.458;2022-10-16T12:24:35;1.13;;;0.40;;
21675;SDS011;10999;51.332;9.458;2022-10-16T12:30:01;1.20;;;0.50;;
21675;SDS011;10999;51.332;9.458;2022-10-16T12:35:22;2.38;;;0.47;;
21675;SDS011;10999;51.332;9.458;2022-10-16T12:37:51;1.08;;;0.50;;
21675;SDS011;10999;51.332;9.458;2022-10-16T12:42:48;1.08;;;0.30;;
21675;SDS011;10999;51.332;9.458;2022-10-16T12:47:54;2.08;;;0.35;;
21675;SDS011;10999;51.332;9.458;2022-10-16T12:50:43;1.30;;;0.35;;
21675;SDS011;10999;51.332;9.458;2022-10-16T12:53:20;1.17;;;0.30;;
21675;SDS011;10999;51.332;9.458;2022-10-16T13:01:27;0.38;;;0.20;;
21675;SDS011;10999;51.332;9.458;2022-10-16T13:07:11;1.35;;;0.50;;
21675;SDS011;10999;51.332;9.458;2022-10-16T13:09:46;0.45;;;0.22;;
21675;SDS011;10999;51.332;9.458;2022-10-16T13:12:30;1.63;;;0.50;;
21675;SDS011;10999;51.332;9.458;2022-10-16T13:18:16;1.48;;;0.40;;
21675;SDS011;10999;51.332;9.458;2022-10-16T13:23:23;0.32;;;0.30;;
21675;SDS011;10999;51.332;9.458;2022-10-16T13:28:41;0.60;;;0.20;;
21675;SDS011;10999;51.332;9.458;2022-10-16T13:31:14;2.33;;;0.38;;
21675;SDS011;10999;51.332;9.458;2022-10-16T13:33:46;1.27;;;0.32;;
21675;SDS011;10999;51.332;9.458;2022-10-16T13:36:20;2.42;;;0.30;;
21675;SDS011;10999;51.332;9.458;2022-10-16T13:38:47;1.08;;;0.40;;
21675;SDS011;10999;51.332;9.458;2022-10-16T13:41:16;0.77;;;0.30;;
21675;SDS011;10999;51.332;9.458;2022-10-16T13:43:51;2.00;;;0.40;;
21675;SDS011;10999;51.332;9.458;2022-10-16T13:46:20;0.63;;;0.30;;
21675;SDS011;10999;51.332;9.458;2022-10-16T13:48:58;1.55;;;0.40;;
21675;SDS011;10999;51.332;9.458;2022-10-16T13:51:27;0.40;;;0.25;;
21675;SDS011;10999;51.332;9.458;2022-10-16T13:53:55;0.55;;;0.17;;
21675;SDS011;10999;51.332;9.458;2022-10-16T13:56:27;0.85;;;0.30;;
21675;SDS011;10999;51.332;9.458;2022-10-16T13:59:02;0.30;;;0.20;;
21675;SDS011;10999;51.332;9.458;2022-10-16T14:01:32;0.88;;;0.22;;
21675;SDS011;10999;51.332;9.458;2022-10-16T14:04:06;0.57;;;0.30;;
21675;SDS011;10999;51.332;9.458;2022-10-16T14:06:35;1.85;;;0.60;;
21675;SDS011;10999;51.332;9.458;2022-10-16T14:09:07;2.47;;;0.30;;
21675;SDS011;10999;51.332;9.458;2022-10-16T14:11:48;1.30;;;0.40;;
21675;SDS011;10999;51.332;9.458;2022-10-16T14:14:34;1.50;;;0.40;;
21675;SDS011;10999;51.332;9.458;2022-10-16T14:17:13;1.13;;;0.30;;
21675;SDS011;10999;51.332;9.458;2022-10-16T14:19:45;0.35;;;0.30;;
21675;SDS011;10999;51.332;9.458;2022-10-16T14:22:37;0.70;;;0.43;;
21675;SDS011;10999;51.332;9.458;2022-10-16T14:25:20;5.28;;;0.50;;
21675;SDS011;10999;51.332;9.458;2022-10-16T14:30:55;3.00;;;0.43;;
21675;SDS011;10999;51.332;9.458;2022-10-16T14:36:00;1.33;;;0.28;;
21675;SDS011;10999;51.332;9.458;2022-10-16T14:38:37;0.57;;;0.40;;
21675;SDS011;10999;51.332;9.458;2022-10-16T14:41:05;1.60;;;0.40;;
21675;SDS011;10999;51.332;9.458;2022-10-16T14:43:36;1.58;;;0.30;;
21675;SDS011;10999;51.332;9.458;2022-10-16T14:46:13;1.77;;;0.40;;
21675;SDS011;10999;51.332;9.458;2022-10-16T14:48:44;2.17;;;0.40;;
21675;SDS011;10999;51.332;9.458;2022-10-16T14:51:15;3.70;;;0.32;;
21675;SDS011;10999;51.332;9.458;2022-10-16T14:53:42;1.77;;;0.40;;
21675;SDS011;10999;51.332;9.458;2022-10-16T14:56:24;4.28;;;0.70;;
21675;SDS011;10999;51.332;9.458;2022-10-16T14:59:04;2.78;;;0.50;;
21675;SDS011;10999;51.332;9.458;2022-10-16T15:01:31;3.08;;;0.50;;
21675;SDS011;10999;51.332;9.458;2022-10-16T15:04:01;1.23;;;0.50;;
21675;SDS011;10999;51.332;9.458;2022-10-16T15:06:30;1.08;;;0.40;;
21675;SDS011;10999;51.332;9.458;2022-10-16T15:08:56;1.33;;;0.40;;
21675;SDS011;10999;51.332;9.458;2022-10-16T15:11:24;1.50;;;0.52;;
21675;SDS011;10999;51.332;9.458;2022-10-16T15:13:53;1.85;;;0.50;;
21675;SDS011;10999;51.332;9.458;2022-10-16T15:16:20;1.95;;;0.50;;
21675;SDS011;10999;51.332;9.458;2022-10-16T15:18:47;2.80;;;0.60;;
21675;SDS011;10999;51.332;9.458;2022-10-16T15:21:27;1.30;;;0.50;;
21675;SDS011;10999;51.332;9.458;2022-10-16T15:23:57;1.85;;;0.60;;
21675;SDS011;10999;51.332;9.458;2022-10-16T15:26:26;1.73;;;0.50;;
21675;SDS011;10999;51.332;9.458;2022-10-16T15:28:54;1.65;;;0.50;;
21675;SDS011;10999;51.332;9.458;2022-10-16T15:31:21;2.10;;;0.50;;
21675;SDS011;10999;51.332;9.458;2022-10-16T15:33:49;2.17;;;0.73;;
21675;SDS011;10999;51.332;9.458;2022-10-16T15:36:30;2.42;;;1.23;;
21675;SDS011;10999;51.332;9.458;2022-10-16T15:39:03;2.45;;;0.80;;
21675;SDS011;10999;51.332;9.458;2022-10-16T15:41:31;2.90;;;0.88;;
21675;SDS011;10999;51.332;9.458;2022-10-16T15:43:58;4.28;;;0.80;;
21675;SDS011;10999;51.332;9.458;2022-10-16T15:46:24;2.13;;;0.73;;
21675;SDS011;10999;51.332;9.458;2022-10-16T15:48:51;1.77;;;0.70;;
21675;SDS011;10999;51.332;9.458;2022-10-16T15:53:50;1.92;;;0.52;;
21675;SDS011;10999;51.332;9.458;2022-10-16T15:56:17;2.72;;;0.80;;
21675;SDS011;10999;51.332;9.458;2022-10-16T15:58:44;4.15;;;0.73;;
21675;SDS011;10999;51.332;9.458;2022-10-16T16:01:10;1.60;;;0.60;;
21675;SDS011;10999;51.332;9.458;2022-10-16T16:03:38;2.25;;;0.80;;
21675;SDS011;10999;51.332;9.458;2022-10-16T16:06:09;2.40;;;0.80;;
21675;SDS011;10999;51.332;9.458;2022-10-16T16:08:38;3.35;;;0.90;;
21675;SDS011;10999;51.332;9.458;2022-10-16T16:11:05;3.40;;;0.95;;
21675;SDS011;10999;51.332;9.458;2022-10-16T16:13:37;3.90;;;0.80;;
21675;SDS011;10999;51.332;9.458;2022-10-16T16:16:05;3.13;;;1.05;;
21675;SDS011;10999;51.332;9.458;2022-10-16T16:18:33;3.22;;;0.98;;
21675;SDS011;10999;51.332;9.458;2022-10-16T16:20:59;2.75;;;0.70;;
21675;SDS011;10999;51.332;9.458;2022-10-16T16:23:26;3.58;;;0.80;;
21675;SDS011;10999;51.332;9.458;2022-10-16T16:26:13;3.75;;;0.98;;
21675;SDS011;10999;51.332;9.458;2022-10-16T16:28:54;2.50;;;0.80;;
21675;SDS011;10999;51.332;9.458;2022-10-16T16:31:25;2.08;;;0.70;;
21675;SDS011;10999;51.332;9.458;2022-10-16T16:36:20;2.88;;;1.15;;
21675;SDS011;10999;51.332;9.458;2022-10-16T16:38:52;4.60;;;1.80;;
21675;SDS011;10999;51.332;9.458;2022-10-16T16:41:20;4.82;;;2.05;;
21675;SDS011;10999;51.332;9.458;2022-10-16T16:43:48;5.80;;;2.05;;
21675;SDS011;10999;51.332;9.458;2022-10-16T16:46:17;4.20;;;2.20;;
21675;SDS011;10999;51.332;9.458;2022-10-16T16:48:45;4.53;;;1.55;;
21675;SDS011;10999;51.332;9.458;2022-10-16T16:51:16;4.18;;;1.70;;
21675;SDS011;10999;51.332;9.458;2022-10-16T16:53:47;4.07;;;1.55;;
21675;SDS011;10999;51.332;9.458;2022-10-16T16:56:15;5.70;;;1.63;;
21675;SDS011;10999;51.332;9.458;2022-10-16T16:58:49;5.25;;;1.70;;
21675;SDS011;10999;51.332;9.458;2022-10-16T17:01:18;6.43;;;2.00;;